Time;durP1;ratioP1;P1;durP2;ratioP2;P2;SDS_P1;SDS_P2;PMS_P1;PMS_P2;Temp;Humidity;BMP_temperature;BMP_pressure;BME280_temperature;BME280_humidity;BME280_pressure;Samples;Min_cycle;Max_cycle;Signal;HPM_P1;HPM_P2
2023/09/21 00:00:50;;;;;;;6.57;4.17;;;17.60;99.90;;;;;;5029321;28;20180;-86
2023/09/21 00:03:16;;;;;;;5.03;4.30;;;17.60;99.90;;;;;;5023109;28;20181;-86
2023/09/21 00:05:46;;;;;;;4.67;4.27;;;17.60;99.90;;;;;;5039802;28;20191;-86
2023/09/21 00:08:12;;;;;;;4.83;4.33;;;17.60;99.90;;;;;;5039522;28;20207;-86
2023/09/21 00:10:41;;;;;;;4.30;4.00;;;;;;;;;;5041367;28;20184;-86
2023/09/21 00:13:07;;;;;;;5.97;4.50;;;17.60;99.90;;;;;;5023019;28;20191;-85
2023/09/21 00:15:34;;;;;;;4.87;4.10;;;17.60;99.90;;;;;;5020627;28;20204;-86
2023/09/21 00:18:00;;;;;;;4.47;4.07;;;17.60;99.90;;;;;;5039016;28;20179;-85
2023/09/21 00:20:35;;;;;;;5.60;3.93;;;17.10;99.90;;;;;;5046385;28;20620;-86
2023/09/21 00:23:06;;;;;;;6.17;4.20;;;17.50;99.90;;;;;;5055635;28;20219;-85
2023/09/21 00:25:32;;;;;;;6.13;4.10;;;17.50;99.90;;;;;;5026582;28;20267;-86
2023/09/21 00:27:58;;;;;;;5.07;3.80;;;17.40;99.90;;;;;;5038781;28;20214;-85
2023/09/21 00:30:23;;;;;;;5.37;4.37;;;17.40;99.90;;;;;;5037052;28;20248;-86
2023/09/21 00:32:49;;;;;;;5.27;4.03;;;17.40;99.90;;;;;;5036076;28;20181;-83
2023/09/21 00:35:16;;;;;;;5.00;4.37;;;17.30;99.90;;;;;;5037614;28;20204;-83
2023/09/21 00:37:43;;;;;;;3.83;3.63;;;17.30;99.90;;;;;;5019904;28;20267;-85
2023/09/21 00:40:20;;;;;;;5.57;4.47;;;15.60;99.90;;;;;;5037618;28;20172;-86
2023/09/21 00:42:46;;;;;;;5.00;4.50;;;17.30;99.90;;;;;;5036415;28;20267;-84
2023/09/21 00:45:14;;;;;;;6.97;4.70;;;17.40;99.90;;;;;;5037687;28;20168;-85
2023/09/21 00:47:44;;;;;;;7.77;4.10;;;17.30;99.90;;;;;;5037039;28;20208;-84
2023/09/21 00:50:12;;;;;;;4.27;3.90;;;17.30;99.90;;;;;;5039586;28;20178;-86
2023/09/21 00:52:40;;;;;;;5.10;4.33;;;17.30;99.90;;;;;;5051572;28;20176;-88
2023/09/21 00:55:13;;;;;;;4.90;4.40;;;17.30;99.90;;;;;;5051118;28;20166;-86
2023/09/21 00:57:40;;;;;;;4.50;4.10;;;17.20;99.90;;;;;;5048190;28;20179;-85
2023/09/21 01:00:13;;;;;;;5.23;4.20;;;17.20;99.90;;;;;;5050688;28;20184;-87
2023/09/21 01:02:46;;;;;;;5.10;4.50;;;17.20;99.90;;;;;;5044103;28;20177;-86
2023/09/21 01:05:17;;;;;;;4.70;4.30;;;17.20;99.90;;;;;;5044936;28;20186;-84
2023/09/21 01:07:45;;;;;;;7.13;5.07;;;17.20;99.90;;;;;;5038115;28;20229;-86
2023/09/21 01:10:12;;;;;;;4.50;4.10;;;17.10;99.90;;;;;;5039500;28;20198;-83
2023/09/21 01:12:49;;;;;;;5.37;4.83;;;17.10;99.90;;;;;;5026105;28;20176;-85
2023/09/21 01:15:15;;;;;;;6.60;4.60;;;17.20;99.90;;;;;;5075148;28;20163;-87
2023/09/21 01:17:42;;;;;;;5.60;5.00;;;17.20;99.90;;;;;;5078443;28;20258;-86
2023/09/21 01:20:51;;;;;;;5.03;4.53;;;17.20;99.90;;;;;;5075939;28;20168;-85
2023/09/21 01:23:19;;;;;;;4.37;3.97;;;17.20;99.90;;;;;;5076635;28;20194;-86
2023/09/21 01:25:50;;;;;;;5.47;4.60;;;17.30;99.90;;;;;;5078494;28;20160;-86
2023/09/21 01:28:21;;;;;;;7.60;4.77;;;17.30;99.90;;;;;;5075159;28;20218;-87
2023/09/21 01:30:56;;;;;;;4.97;4.47;;;17.30;99.90;;;;;;5043828;28;20172;-86
2023/09/21 01:33:23;;;;;;;5.83;4.43;;;17.30;99.90;;;;;;5066338;28;20186;-86
2023/09/21 01:35:50;;;;;;;5.53;4.70;;;17.30;99.90;;;;;;5066676;28;20266;-83
2023/09/21 01:38:17;;;;;;;7.63;4.80;;;17.30;99.90;;;;;;5053806;28;20190;-85
2023/09/21 01:40:43;;;;;;;4.87;4.30;;;17.30;99.90;;;;;;5059151;28;20164;-85
2023/09/21 01:43:15;;;;;;;5.33;4.43;;;17.40;99.90;;;;;;5057044;28;20193;-84
2023/09/21 01:45:42;;;;;;;4.93;4.43;;;;;;;;;;5039901;28;20262;-84
2023/09/21 01:48:09;;;;;;;5.37;4.30;;;17.40;99.90;;;;;;5056530;28;20218;-85
2023/09/21 01:50:40;;;;;;;5.80;4.27;;;17.50;99.90;;;;;;5045548;28;20534;-84
2023/09/21 01:53:10;;;;;;;4.50;4.10;;;17.50;99.90;;;;;;5056449;28;20662;-83
2023/09/21 01:55:37;;;;;;;4.83;4.30;;;17.50;99.90;;;;;;5055690;28;20670;-85
2023/09/21 01:58:04;;;;;;;4.50;4.10;;;17.50;99.90;;;;;;5038339;28;20175;-86
2023/09/21 02:00:35;;;;;;;7.13;4.67;;;17.50;99.90;;;;;;5056146;28;20171;-84
2023/09/21 02:03:04;;;;;;;4.80;4.37;;;17.60;99.90;;;;;;5038490;28;20168;-87
2023/09/21 02:05:30;;;;;;;4.97;3.80;;;17.50;99.90;;;;;;5038678;28;20175;-85
2023/09/21 02:07:56;;;;;;;4.50;4.10;;;17.50;99.90;;;;;;5069717;28;20218;-86
2023/09/21 02:10:22;;;;;;;4.50;4.10;;;17.40;99.90;;;;;;5067345;28;20207;-86
2023/09/21 02:12:56;;;;;;;4.43;3.80;;;17.40;99.90;;;;;;5039651;28;20237;-85
2023/09/21 02:15:26;;;;;;;5.17;4.10;;;17.40;99.90;;;;;;5062577;28;20163;-83
2023/09/21 02:17:55;;;;;;;4.17;3.77;;;17.30;99.90;;;;;;5055759;28;20258;-84
2023/09/21 02:20:27;;;;;;;4.37;3.97;;;17.60;99.90;;;;;;5055754;28;20543;-85
2023/09/21 02:23:01;;;;;;;4.43;4.10;;;17.50;99.90;;;;;;5055868;28;20167;-85
2023/09/21 02:25:34;;;;;;;4.77;4.37;;;17.40;99.90;;;;;;5038109;28;20529;-85
2023/09/21 02:28:06;;;;;;;4.47;4.07;;;17.70;99.90;;;;;;5038039;28;20245;-85
2023/09/21 02:30:33;;;;;;;5.33;4.03;;;17.30;99.90;;;;;;5055719;28;20167;-84
2023/09/21 02:32:59;;;;;;;5.70;4.07;;;17.30;99.90;;;;;;5044341;28;20257;-86
2023/09/21 02:35:27;;;;;;;4.70;4.30;;;16.60;99.90;;;;;;5061882;28;20563;-86
2023/09/21 02:37:55;;;;;;;6.57;4.50;;;17.40;99.90;;;;;;5055518;28;20265;-86
2023/09/21 02:40:23;;;;;;;5.13;4.30;;;17.70;99.90;;;;;;5037395;28;20270;-87
2023/09/21 02:42:56;;;;;;;6.53;4.10;;;17.50;99.90;;;;;;5037823;28;20180;-85
2023/09/21 02:45:24;;;;;;;4.90;3.83;;;17.40;99.90;;;;;;5037818;28;20171;-86
2023/09/21 02:47:52;;;;;;;6.73;4.50;;;17.50;99.90;;;;;;5054954;28;20198;-85
2023/09/21 02:50:21;;;;;;;6.10;4.33;;;17.50;99.90;;;;;;5037001;28;20263;-84
2023/09/21 02:53:04;;;;;;;4.57;4.17;;;17.20;99.90;;;;;;5055469;28;20646;-86
2023/09/21 02:55:29;;;;;;;3.87;3.47;;;17.60;99.90;;;;;;5021381;28;20188;-85
2023/09/21 02:58:10;;;;;;;4.60;4.03;;;17.60;99.90;;;;;;5038499;28;20645;-86
2023/09/21 03:00:44;;;;;;;5.10;4.10;;;17.70;99.90;;;;;;5032294;28;20220;-84
2023/09/21 03:03:12;;;;;;;4.90;4.50;;;17.70;99.90;;;;;;5043590;28;20181;-86
2023/09/21 03:05:39;;;;;;;4.33;3.93;;;17.70;99.90;;;;;;5001830;28;20195;-85
2023/09/21 03:08:13;;;;;;;7.00;4.37;;;17.70;99.90;;;;;;5035444;28;20291;-84
2023/09/21 03:10:47;;;;;;;4.60;4.30;;;17.80;99.90;;;;;;5020396;28;20243;-85
2023/09/21 03:13:17;;;;;;;5.53;4.10;;;17.80;99.90;;;;;;5049256;28;20184;-83
2023/09/21 03:15:50;;;;;;;5.50;4.20;;;17.80;99.90;;;;;;5039789;28;20199;-84
2023/09/21 03:18:18;;;;;;;5.70;4.07;;;17.90;99.90;;;;;;5018930;28;20182;-84
2023/09/21 03:20:45;;;;;;;4.40;4.00;;;17.80;99.90;;;;;;5018723;28;20358;-85
2023/09/21 03:23:13;;;;;;;5.17;3.93;;;17.90;99.90;;;;;;5021881;28;20214;-84
2023/09/21 03:25:47;;;;;;;6.07;4.17;;;15.70;99.90;;;;;;5021193;28;20196;-83
2023/09/21 03:28:15;;;;;;;4.57;4.20;;;17.90;99.90;;;;;;5056688;28;20231;-85
2023/09/21 03:30:43;;;;;;;5.67;4.40;;;17.90;99.90;;;;;;5025429;28;20177;-85
2023/09/21 03:33:09;;;;;;;5.23;4.60;;;18.00;99.90;;;;;;5037693;28;20620;-84
2023/09/21 03:35:37;;;;;;;8.30;5.07;;;18.00;99.90;;;;;;5038189;28;20183;-85
2023/09/21 03:38:10;;;;;;;5.67;4.90;;;18.00;99.90;;;;;;5039841;28;20198;-85
2023/09/21 03:40:36;;;;;;;4.87;4.30;;;17.90;99.90;;;;;;5017713;28;20225;-85
2023/09/21 03:43:03;;;;;;;6.10;4.83;;;18.00;99.90;;;;;;5035816;28;20196;-85
2023/09/21 03:45:30;;;;;;;7.67;4.97;;;17.90;99.90;;;;;;5017415;28;20269;-85
2023/09/21 03:47:56;;;;;;;6.50;5.70;;;18.00;99.90;;;;;;5035440;28;20211;-83
2023/09/21 03:50:27;;;;;;;8.47;4.80;;;18.00;99.90;;;;;;5035805;28;20223;-85
2023/09/21 03:52:54;;;;;;;5.97;5.47;;;;;;;;;;5041515;28;20252;-85
2023/09/21 03:55:20;;;;;;;8.70;5.80;;;18.10;99.90;;;;;;5039021;28;20172;-84
2023/09/21 03:57:46;;;;;;;8.93;5.90;;;18.00;99.90;;;;;;5027505;28;20187;-86
2023/09/21 04:02:45;;;;;;;5.90;5.30;;;20.00;99.90;;;;;;5039640;28;20176;-86
2023/09/21 04:05:14;;;;;;;7.90;5.50;;;17.90;99.90;;;;;;5038144;28;20187;-85
2023/09/21 04:07:40;;;;;;;7.07;5.73;;;17.80;99.90;;;;;;5019781;28;20714;-84
2023/09/21 04:10:06;;;;;;;7.33;5.87;;;17.80;99.90;;;;;;5045590;28;20201;-86
2023/09/21 04:12:32;;;;;;;9.27;6.87;;;17.70;99.90;;;;;;5023022;28;20275;-85
2023/09/21 04:14:59;;;;;;;13.23;8.03;;;17.70;99.90;;;;;;5037770;28;20298;-86
2023/09/21 04:17:26;;;;;;;12.17;7.33;;;17.70;99.90;;;;;;5037963;28;20180;-85
2023/09/21 04:19:55;;;;;;;10.13;7.90;;;17.70;99.90;;;;;;5038003;28;20205;-85
2023/09/21 04:22:21;;;;;;;13.33;7.60;;;17.70;99.90;;;;;;5025594;28;20191;-84
2023/09/21 04:24:47;;;;;;;12.70;7.60;;;17.70;99.90;;;;;;5028065;28;20184;-84
2023/09/21 04:27:12;;;;;;;13.03;7.63;;;17.70;99.90;;;;;;5037545;28;20228;-87
2023/09/21 04:29:39;;;;;;;11.43;7.50;;;17.70;99.90;;;;;;5038593;28;20663;-84
2023/09/21 04:32:05;;;;;;;10.20;7.87;;;17.70;99.90;;;;;;5020020;28;20191;-84
2023/09/21 04:34:33;;;;;;;16.17;7.60;;;17.60;99.90;;;;;;5020026;28;20176;-85
2023/09/21 04:36:59;;;;;;;10.87;7.43;;;17.60;99.90;;;;;;5037182;28;20172;-84
2023/09/21 04:39:25;;;;;;;9.90;6.70;;;17.60;99.90;;;;;;5037254;28;20595;-84
2023/09/21 04:41:50;;;;;;;10.37;6.77;;;17.60;99.90;;;;;;5019398;28;20295;-86
2023/09/21 04:44:16;;;;;;;7.80;6.47;;;17.60;99.90;;;;;;5037545;28;20180;-85
2023/09/21 04:46:42;;;;;;;11.03;6.80;;;17.60;99.90;;;;;;5019207;28;20180;-83
2023/09/21 04:49:08;;;;;;;10.00;6.53;;;17.70;99.90;;;;;;5019420;28;20227;-84
2023/09/21 04:51:34;;;;;;;11.47;7.53;;;17.80;99.90;;;;;;5047902;28;20157;-85
2023/09/21 04:54:00;;;;;;;12.90;8.17;;;17.80;99.90;;;;;;5028670;28;20230;-85
2023/09/21 04:56:26;;;;;;;12.13;9.00;;;17.80;99.90;;;;;;5021880;28;20172;-85
2023/09/21 04:58:55;;;;;;;12.17;7.93;;;17.80;99.90;;;;;;5040128;28;20178;-84
2023/09/21 05:01:25;;;;;;;11.57;8.30;;;17.90;99.90;;;;;;5024199;28;20241;-84
2023/09/21 05:03:51;;;;;;;11.87;7.80;;;17.80;99.90;;;;;;5037486;28;20179;-84
2023/09/21 05:06:18;;;;;;;13.47;8.07;;;17.80;99.90;;;;;;5052685;28;20180;-85
2023/09/21 05:08:44;;;;;;;10.73;7.60;;;17.80;99.90;;;;;;5038894;28;20200;-85
2023/09/21 05:11:11;;;;;;;9.97;7.73;;;17.80;99.90;;;;;;5022829;28;20229;-86
2023/09/21 05:13:40;;;;;;;9.03;7.60;;;17.80;99.90;;;;;;5022188;28;20195;-84
2023/09/21 05:16:09;;;;;;;12.53;7.50;;;17.70;99.90;;;;;;5020373;28;20199;-84
2023/09/21 05:18:41;;;;;;;12.73;9.33;;;17.70;99.90;;;;;;5021884;28;20181;-84
2023/09/21 05:21:06;;;;;;;11.60;8.30;;;17.60;99.90;;;;;;5028391;28;20179;-84
2023/09/21 05:23:32;;;;;;;10.40;8.47;;;17.60;99.90;;;;;;5047933;28;20177;-84
2023/09/21 05:25:58;;;;;;;10.20;8.50;;;17.60;99.90;;;;;;5047270;28;20229;-83
2023/09/21 05:28:24;;;;;;;9.87;8.33;;;17.60;99.90;;;;;;5029016;28;20238;-82
2023/09/21 05:30:49;;;;;;;13.20;8.90;;;17.70;99.90;;;;;;5046425;28;20632;-84
2023/09/21 05:33:15;;;;;;;10.97;8.70;;;17.70;99.90;;;;;;5021901;28;20196;-83
2023/09/21 05:35:50;;;;;;;9.33;8.17;;;17.80;99.90;;;;;;5040936;28;20173;-82
2023/09/21 05:38:16;;;;;;;8.57;7.67;;;17.90;99.90;;;;;;5056565;28;20551;-84
2023/09/21 05:40:41;;;;;;;10.23;7.27;;;17.90;99.90;;;;;;5037698;28;20181;-84
2023/09/21 05:43:07;;;;;;;9.53;7.93;;;18.00;99.90;;;;;;5041279;28;20181;-84
2023/09/21 05:45:33;;;;;;;8.83;7.53;;;18.00;99.90;;;;;;5023582;28;20214;-82
2023/09/21 05:47:58;;;;;;;11.83;7.90;;;18.00;99.90;;;;;;5028817;28;20212;-84
2023/09/21 05:50:24;;;;;;;8.83;7.60;;;17.90;99.90;;;;;;5035082;28;20675;-82
2023/09/21 05:52:50;;;;;;;9.73;7.60;;;17.90;99.90;;;;;;5040942;28;20180;-83
2023/09/21 05:55:17;;;;;;;10.87;7.80;;;18.00;99.90;;;;;;5021431;28;20693;-84
2023/09/21 05:57:46;;;;;;;8.57;7.67;;;18.00;99.90;;;;;;5018430;28;20184;-84
2023/09/21 06:00:18;;;;;;;11.47;7.70;;;18.10;99.90;;;;;;5020145;28;20176;-84
2023/09/21 06:02:44;;;;;;;9.30;7.73;;;18.30;99.90;;;;;;5018381;28;20308;-83
2023/09/21 06:05:12;;;;;;;7.83;6.87;;;18.30;99.90;;;;;;5035666;28;20633;-84
2023/09/21 06:07:38;;;;;;;7.93;7.13;;;18.30;99.90;;;;;;5018155;28;20235;-86
2023/09/21 06:10:06;;;;;;;8.83;6.83;;;18.30;99.90;;;;;;5035697;28;20578;-86
2023/09/21 06:12:33;;;;;;;8.33;7.43;;;15.90;99.90;;;;;;5035722;28;20172;-83
2023/09/21 06:14:58;;;;;;;8.93;7.80;;;18.20;99.90;;;;;;5019560;28;20215;-86
2023/09/21 06:17:24;;;;;;;8.37;6.97;;;18.30;99.90;;;;;;5017924;28;20185;-85
2023/09/21 06:19:53;;;;;;;11.10;7.37;;;18.30;99.90;;;;;;5002957;28;20211;-84
2023/09/21 06:22:19;;;;;;;7.73;7.03;;;18.40;99.90;;;;;;5023211;28;20195;-84
2023/09/21 06:24:44;;;;;;;7.47;6.77;;;18.50;99.90;;;;;;5030396;28;20184;-84
2023/09/21 06:27:11;;;;;;;7.97;6.77;;;;;;;;;;5041727;28;20246;-86
2023/09/21 06:29:36;;;;;;;8.77;7.00;;;18.60;99.90;;;;;;5064953;28;20183;-86
2023/09/21 06:32:07;;;;;;;8.20;6.17;;;18.70;99.90;;;;;;5062573;28;20172;-84
2023/09/21 06:34:34;;;;;;;9.97;7.63;;;18.70;99.90;;;;;;5055800;28;20152;-83
2023/09/21 06:37:00;;;;;;;9.67;6.80;;;18.80;99.90;;;;;;5055574;28;20172;-84
2023/09/21 06:39:26;;;;;;;9.23;6.17;;;18.80;99.90;;;;;;5055509;28;20176;-83
2023/09/21 06:41:52;;;;;;;6.77;6.13;;;18.90;99.90;;;;;;5068074;28;20179;-83
2023/09/21 06:44:18;;;;;;;7.83;6.50;;;19.00;99.90;;;;;;5064624;28;20179;-86
2023/09/21 06:46:45;;;;;;;7.73;6.33;;;19.10;99.90;;;;;;5056552;28;20180;-86
2023/09/21 06:49:11;;;;;;;6.83;6.10;;;19.20;99.90;;;;;;5055096;28;20175;-83
2023/09/21 06:51:37;;;;;;;7.53;6.87;;;19.20;99.90;;;;;;5055798;28;20227;-84
2023/09/21 06:54:03;;;;;;;6.57;5.90;;;19.20;99.90;;;;;;5054488;28;20207;-84
2023/09/21 06:56:32;;;;;;;7.53;6.20;;;19.20;99.90;;;;;;5054528;28;20176;-84
2023/09/21 06:58:58;;;;;;;11.57;6.33;;;19.20;99.90;;;;;;5054562;28;20172;-83
2023/09/21 07:01:27;;;;;;;5.70;5.20;;;19.40;99.90;;;;;;5054016;28;20172;-84
2023/09/21 07:03:52;;;;;;;6.77;5.63;;;19.50;99.90;;;;;;5057522;28;20191;-83
2023/09/21 07:06:19;;;;;;;6.10;5.57;;;19.50;99.90;;;;;;5062151;28;20184;-85
2023/09/21 07:08:47;;;;;;;8.00;5.80;;;19.60;99.90;;;;;;5055468;28;20755;-84
2023/09/21 07:11:15;;;;;;;9.30;5.37;;;19.70;99.90;;;;;;5053694;28;20606;-84
2023/09/21 07:13:42;;;;;;;7.83;5.90;;;19.80;99.90;;;;;;5053379;28;20176;-83
2023/09/21 07:16:09;;;;;;;5.90;5.17;;;19.80;99.90;;;;;;5055341;28;20183;-83
2023/09/21 07:18:36;;;;;;;6.53;5.93;;;19.90;99.90;;;;;;5056134;28;20180;-83
2023/09/21 07:21:02;;;;;;;6.40;5.50;;;19.80;99.90;;;;;;5056558;28;20176;-82
2023/09/21 07:23:28;;;;;;;10.27;5.97;;;19.90;99.90;;;;;;5062466;28;20194;-84
2023/09/21 07:25:53;;;;;;;6.90;5.70;;;19.90;99.90;;;;;;5067041;28;20235;-84
2023/09/21 07:28:20;;;;;;;9.20;6.10;;;19.90;99.90;;;;;;5023366;28;20231;-84
2023/09/21 07:30:46;;;;;;;8.53;5.70;;;19.90;99.90;;;;;;5021338;28;20238;-83
2023/09/21 07:33:13;;;;;;;13.67;6.17;;;20.00;99.90;;;;;;5020958;28;20635;-84
2023/09/21 07:35:39;;;;;;;7.10;6.27;;;19.80;99.90;;;;;;5053909;28;20172;-83
2023/09/21 07:38:04;;;;;;;7.80;5.73;;;19.90;99.90;;;;;;5050009;28;20207;-84
2023/09/21 07:40:31;;;;;;;5.53;5.03;;;20.00;99.90;;;;;;5049334;28;20196;-85
2023/09/21 07:42:57;;;;;;;6.70;6.00;;;20.10;99.90;;;;;;5041365;28;20172;-83
2023/09/21 07:45:24;;;;;;;10.00;5.90;;;20.20;99.90;;;;;;5039479;28;20172;-83
2023/09/21 07:47:51;;;;;;;6.87;5.40;;;20.30;99.90;;;;;;5038566;28;20209;-81
2023/09/21 07:50:23;;;;;;;7.00;6.03;;;20.30;99.90;;;;;;5037858;28;20169;-82
2023/09/21 07:52:49;;;;;;;7.17;5.47;;;20.50;99.90;;;;;;5038447;28;20188;-82
2023/09/21 07:55:15;;;;;;;6.40;5.20;;;20.40;99.90;;;;;;5038099;28;20175;-83
2023/09/21 07:57:41;;;;;;;6.10;5.17;;;20.40;99.90;;;;;;5041085;28;20180;-85
2023/09/21 08:00:13;;;;;;;6.70;4.80;;;20.50;99.90;;;;;;5026777;28;20184;-82
2023/09/21 08:02:39;;;;;;;4.43;4.13;;;20.50;99.90;;;;;;5037080;28;20180;-84
2023/09/21 08:05:05;;;;;;;4.97;4.50;;;20.50;99.90;;;;;;5044214;28;20175;-83
2023/09/21 08:07:33;;;;;;;6.83;4.13;;;20.60;99.90;;;;;;5034042;28;20267;-84
2023/09/21 08:10:01;;;;;;;6.57;4.13;;;20.60;99.90;;;;;;5043681;28;20173;-83
2023/09/21 08:12:27;;;;;;;6.20;3.87;;;20.70;99.90;;;;;;5020332;28;20545;-84
2023/09/21 08:14:53;;;;;;;3.90;3.63;;;20.70;99.90;;;;;;5020043;28;20187;-85
2023/09/21 08:17:19;;;;;;;6.30;3.90;;;20.70;99.90;;;;;;5055288;28;20172;-84
2023/09/21 08:19:46;;;;;;;3.67;3.30;;;20.60;99.90;;;;;;5043367;28;20192;-83
2023/09/21 08:22:12;;;;;;;3.93;3.63;;;20.60;99.90;;;;;;5020081;28;20259;-80
2023/09/21 08:24:41;;;;;;;4.33;4.00;;;20.70;99.90;;;;;;5037675;28;20224;-83
2023/09/21 08:27:07;;;;;;;6.43;3.73;;;20.60;99.90;;;;;;5038413;28;20231;-83
2023/09/21 08:29:33;;;;;;;3.30;3.00;;;20.70;99.90;;;;;;5038514;28;20161;-81
2023/09/21 08:31:59;;;;;;;3.43;3.17;;;20.70;99.90;;;;;;5036210;28;20206;-83
2023/09/21 08:34:25;;;;;;;3.40;3.20;;;20.80;99.90;;;;;;5037607;28;20717;-82
2023/09/21 08:36:51;;;;;;;3.27;3.07;;;20.70;99.90;;;;;;5035549;28;20255;-82
2023/09/21 08:39:17;;;;;;;4.13;3.13;;;20.80;99.90;;;;;;5038131;28;20641;-83
2023/09/21 08:41:51;;;;;;;3.37;3.07;;;22.70;99.90;;;;;;5019640;28;20184;-82
2023/09/21 08:44:20;;;;;;;3.73;3.03;;;20.80;99.90;;;;;;5020282;28;20195;-81
2023/09/21 08:46:47;;;;;;;4.17;3.07;;;;;;;;;;5044277;28;20176;-81
2023/09/21 08:49:21;;;;;;;3.80;3.40;;;20.80;99.90;;;;;;5044968;28;20236;-80
2023/09/21 08:51:48;;;;;;;3.00;2.80;;;20.80;99.90;;;;;;5039752;28;20167;-80
2023/09/21 08:54:16;;;;;;;3.33;3.03;;;21.00;99.90;;;;;;5038041;28;20176;-80
2023/09/21 08:56:43;;;;;;;3.20;2.90;;;20.80;99.90;;;;;;5019589;28;20173;-82
2023/09/21 08:59:09;;;;;;;3.37;3.13;;;20.70;99.90;;;;;;5043200;28;20173;-79
2023/09/21 09:01:37;;;;;;;4.83;3.53;;;20.70;99.90;;;;;;5043707;28;20185;-79
2023/09/21 09:04:03;;;;;;;3.53;3.00;;;20.80;99.90;;;;;;5036560;28;20196;-82
2023/09/21 09:06:29;;;;;;;3.33;2.90;;;20.90;99.90;;;;;;5043839;28;20193;-81
2023/09/21 09:08:55;;;;;;;2.83;2.63;;;21.00;99.90;;;;;;5043498;28;20215;-82
2023/09/21 09:11:39;;;;;;;4.40;3.90;;;21.20;99.90;;;;;;5035591;28;20192;-81
2023/09/21 09:14:16;;;;;;;3.63;2.70;;;21.30;99.90;;;;;;5036103;28;20180;-82
2023/09/21 09:16:46;;;;;;;3.10;2.80;;;21.20;99.90;;;;;;5022090;28;20210;-83
2023/09/21 09:19:13;;;;;;;4.40;2.87;;;21.20;99.90;;;;;;5040039;28;20544;-82
2023/09/21 09:21:41;;;;;;;6.10;3.23;;;21.20;99.90;;;;;;5020498;28;20176;-84
2023/09/21 09:24:08;;;;;;;3.77;3.20;;;21.30;99.90;;;;;;5038008;28;20165;-81
2023/09/21 09:26:37;;;;;;;7.10;3.20;;;21.40;99.90;;;;;;5043751;28;20231;-82
2023/09/21 09:29:06;;;;;;;4.27;3.10;;;21.20;99.90;;;;;;5073325;28;20196;-81
2023/09/21 09:31:37;;;;;;;6.87;4.97;;;21.30;99.90;;;;;;5071587;28;20568;-81
2023/09/21 09:34:17;;;;;;;3.33;3.00;;;21.20;99.90;;;;;;5066934;28;20156;-82
2023/09/21 09:36:45;;;;;;;3.20;3.00;;;22.10;99.90;;;;;;5066656;28;20274;-80
2023/09/21 09:39:14;;;;;;;3.17;2.97;;;21.10;99.90;;;;;;5057901;28;20213;-81
2023/09/21 09:41:41;;;;;;;3.13;2.93;;;21.10;99.90;;;;;;5059405;28;20639;-79
2023/09/21 09:44:10;;;;;;;3.73;3.27;;;21.20;99.90;;;;;;5060320;28;20240;-80
2023/09/21 09:46:41;;;;;;;4.13;3.50;;;21.20;99.90;;;;;;5065116;28;20172;-80
2023/09/21 09:49:08;;;;;;;3.43;3.10;;;21.20;99.90;;;;;;5073101;28;20202;-80
2023/09/21 09:51:44;;;;;;;3.60;3.30;;;21.20;99.90;;;;;;5072667;28;20182;-82
2023/09/21 09:54:12;;;;;;;3.73;3.20;;;21.30;99.90;;;;;;5075282;28;20164;-81
2023/09/21 09:56:41;;;;;;;3.63;3.33;;;21.30;99.90;;;;;;5075178;28;20148;-81
2023/09/21 09:59:10;;;;;;;3.70;3.40;;;21.40;99.90;;;;;;5074678;28;20171;-78
2023/09/21 10:01:37;;;;;;;3.90;3.10;;;21.80;99.90;;;;;;5074870;28;20164;-80
2023/09/21 10:04:07;;;;;;;3.60;3.17;;;21.60;99.90;;;;;;5073513;28;20168;-78
2023/09/21 10:06:37;;;;;;;3.43;3.13;;;21.60;99.90;;;;;;5067445;28;20168;-80
2023/09/21 10:09:14;;;;;;;2.83;2.60;;;21.70;99.90;;;;;;5073624;28;20210;-80
2023/09/21 10:11:46;;;;;;;7.20;3.20;;;22.90;99.90;;;;;;5073880;28;20179;-81
2023/09/21 10:14:18;;;;;;;4.47;3.27;;;21.80;99.90;;;;;;5076882;28;20160;-80
2023/09/21 10:16:54;;;;;;;5.23;2.70;;;21.90;99.90;;;;;;5073540;28;20544;-78
2023/09/21 10:19:28;;;;;;;5.33;2.77;;;22.10;99.90;;;;;;5075874;28;20144;-79
2023/09/21 10:21:56;;;;;;;3.87;2.83;;;22.20;99.90;;;;;;5092539;28;20174;-79
2023/09/21 10:24:26;;;;;;;4.03;3.10;;;22.20;99.90;;;;;;5095243;28;20159;-82
2023/09/21 10:26:53;;;;;;;3.30;2.77;;;22.30;99.90;;;;;;5086558;28;20228;-80
2023/09/21 10:29:32;;;;;;;2.95;2.65;;;22.40;99.90;;;;;;5077156;28;20179;-78
2023/09/21 10:32:06;;;;;;;4.93;2.45;;;22.50;99.90;;;;;;5075848;28;20136;-80
2023/09/21 10:34:32;;;;;;;4.68;2.63;;;22.60;99.90;;;;;;5070482;28;20191;-80
2023/09/21 10:37:10;;;;;;;4.13;2.92;;;22.70;99.90;;;;;;5053495;28;20172;-81
2023/09/21 10:39:39;;;;;;;4.13;2.40;;;22.70;99.90;;;;;;5047139;28;20334;-80
2023/09/21 10:42:08;;;;;;;3.35;2.33;;;22.70;99.90;;;;;;5063950;28;20167;-77
2023/09/21 10:44:56;;;;;;;5.07;3.03;;;22.60;99.90;;;;;;5065953;28;20222;-79
2023/09/21 10:47:35;;;;;;;3.22;2.60;;;22.90;99.90;;;;;;5049011;28;20211;-80
2023/09/21 10:50:09;;;;;;;2.40;2.20;;;23.10;99.90;;;;;;5064424;28;20194;-80
2023/09/21 10:52:39;;;;;;;3.97;1.90;;;23.80;99.90;;;;;;5061614;28;20170;-78
2023/09/21 10:55:07;;;;;;;2.05;1.95;;;23.10;99.90;;;;;;5060879;28;20178;-80
2023/09/21 10:57:33;;;;;;;2.83;2.25;;;23.20;99.90;;;;;;5054589;28;20218;-81
2023/09/21 11:00:07;;;;;;;4.43;2.22;;;23.20;99.90;;;;;;5055470;28;20191;-80
2023/09/21 11:02:38;;;;;;;2.80;2.53;;;23.20;99.90;;;;;;5060758;28;20156;-83
2023/09/21 11:05:07;;;;;;;4.35;2.45;;;23.30;99.90;;;;;;5061000;28;20174;-76
2023/09/21 11:07:34;;;;;;;6.22;2.10;;;23.30;99.90;;;;;;5059052;28;20286;-78
2023/09/21 11:10:00;;;;;;;3.83;2.05;;;23.40;99.90;;;;;;5058657;28;20232;-81
2023/09/21 11:12:26;;;;;;;5.40;2.03;;;23.50;99.90;;;;;;5060545;28;20172;-77
2023/09/21 11:14:51;;;;;;;5.75;1.88;;;23.60;99.90;;;;;;5068631;28;20639;-83
2023/09/21 11:17:18;;;;;;;5.97;2.17;;;23.70;99.90;;;;;;5069588;28;20182;-82
2023/09/21 11:19:46;;;;;;;3.92;1.60;;;23.70;99.90;;;;;;5068019;28;20167;-82
2023/09/21 11:22:14;;;;;;;3.15;1.80;;;23.80;99.90;;;;;;5075618;28;20213;-82
2023/09/21 11:24:42;;;;;;;2.67;1.80;;;23.90;99.90;;;;;;5057058;28;20239;-83
2023/09/21 11:27:14;;;;;;;4.65;2.08;;;23.90;99.90;;;;;;5065847;28;20231;-82
2023/09/21 11:29:43;;;;;;;3.45;1.77;;;23.90;99.90;;;;;;5081212;28;20678;-82
2023/09/21 11:32:17;;;;;;;5.82;2.00;;;23.90;99.90;;;;;;5085915;28;20239;-81
2023/09/21 11:34:44;;;;;;;4.95;2.25;;;24.00;99.90;;;;;;5086620;28;20159;-81
2023/09/21 11:37:11;;;;;;;6.78;2.30;;;24.00;99.90;;;;;;5087120;28;20228;-82
2023/09/21 11:39:38;;;;;;;7.13;2.20;;;24.00;99.90;;;;;;5079984;28;20254;-82
2023/09/21 11:42:07;;;;;;;5.03;2.80;;;24.40;99.90;;;;;;5078679;28;20195;-82
2023/09/21 11:44:35;;;;;;;3.92;1.80;;;24.10;99.90;;;;;;5077979;28;20175;-82
2023/09/21 11:47:01;;;;;;;2.53;1.83;;;24.50;99.90;;;;;;5078361;28;20180;-83
2023/09/21 11:49:38;;;;;;;2.92;1.73;;;24.40;99.90;;;;;;5081003;28;20175;-83
2023/09/21 11:52:05;;;;;;;4.07;2.13;;;25.00;99.90;;;;;;5083295;28;20166;-82
2023/09/21 11:54:35;;;;;;;3.03;1.95;;;24.40;99.90;;;;;;5080065;28;20635;-82
2023/09/21 11:57:04;;;;;;;3.45;2.30;;;24.50;99.90;;;;;;5080916;28;20538;-81
2023/09/21 11:59:44;;;;;;;6.80;2.20;;;24.70;99.90;;;;;;5080653;28;20205;-81
2023/09/21 12:02:13;;;;;;;12.52;7.65;;;24.70;99.90;;;;;;5077182;28;20151;-82
2023/09/21 12:04:41;;;;;;;7.40;2.10;;;24.80;99.90;;;;;;5075836;28;20185;-82
2023/09/21 12:07:09;;;;;;;6.03;2.35;;;25.00;99.90;;;;;;5077824;28;20650;-81
2023/09/21 12:09:40;;;;;;;4.40;1.80;;;25.00;99.90;;;;;;5076938;28;20201;-82
2023/09/21 12:12:10;;;;;;;3.13;2.10;;;24.90;99.90;;;;;;5076891;28;20162;-83
2023/09/21 12:14:36;;;;;;;2.65;1.98;;;25.00;99.90;;;;;;5091258;28;20238;-81
2023/09/21 12:17:09;;;;;;;2.75;2.42;;;24.90;99.90;;;;;;5078138;28;20186;-81
2023/09/21 12:19:36;;;;;;;5.55;2.40;;;24.80;99.90;;;;;;5077732;28;20156;-81
2023/09/21 12:22:08;;;;;;;4.80;2.42;;;24.60;99.90;;;;;;5077768;28;20163;-82
2023/09/21 12:24:34;;;;;;;4.10;2.17;;;24.60;99.90;;;;;;5077916;28;20619;-81
2023/09/21 12:27:03;;;;;;;3.42;1.90;;;24.40;99.90;;;;;;5064693;28;20231;-81
2023/09/21 12:29:29;;;;;;;3.75;2.20;;;24.40;99.90;;;;;;5040234;28;20180;-86
2023/09/21 12:31:58;;;;;;;7.50;2.50;;;24.40;99.90;;;;;;5061407;28;20237;-81
2023/09/21 12:34:31;;;;;;;5.53;2.97;;;24.40;99.90;;;;;;5057774;28;20287;-81
2023/09/21 12:36:57;;;;;;;5.82;2.88;;;24.30;99.90;;;;;;5056366;28;20196;-81
2023/09/21 12:39:24;;;;;;;3.90;2.35;;;24.20;99.90;;;;;;5056528;28;20210;-79
2023/09/21 12:41:51;;;;;;;4.90;2.17;;;24.20;99.90;;;;;;5039082;28;20179;-80
2023/09/21 12:44:17;;;;;;;6.70;2.53;;;24.30;99.90;;;;;;5056846;28;20167;-82
2023/09/21 12:46:43;;;;;;;2.80;2.60;;;24.30;99.90;;;;;;5039893;28;20171;-80
2023/09/21 12:49:08;;;;;;;2.30;1.92;;;24.30;99.90;;;;;;5058518;28;20204;-83
2023/09/21 12:51:38;;;;;;;4.82;2.60;;;24.30;99.90;;;;;;5068579;28;20195;-82
2023/09/21 12:54:07;;;;;;;6.25;2.55;;;24.40;99.90;;;;;;5071938;28;20163;-83
2023/09/21 12:56:33;;;;;;;3.63;2.30;;;24.20;99.90;;;;;;5070398;28;20183;-83